Latest Weather Observations for Laverton

IDW60801

Issued at 11:35 am WST Saturday 20 September 2014 (issued every 30 minutes, with the page automatically refreshed every 10 minutes)

About weather observations | Map of weather stations | Latest weather observations for WA | Other Formats
Station Details ID: 012305 Name: LAVERTON AERO Lat: -28.61 Lon: 122.42 Height: 464.3 m
Data from the previous 72 hours. | See also: Recent months at Laverton
Date/Time
WST
Temp
°C
App
Temp
°C
Dew
Point
Rel
Hum
%
Delta-T
°C
Wind Press
QNH
hPa
Press
MSL
hPa
Rain
since 9 am
mm
Dir
 
Spd
km/h
Gust
km/h
Spd
kts
Gust
kts
20/11:30am 28.4 22.5 4.0 21 12.6 ENE 24 39 13 21 1021.1 1019.9 0.0
20/11:00am 27.4 21.5 3.8 22 12.1 ENE 24 35 13 19 1021.4 1020.2 0.0
20/10:30am 27.8 20.8 4.2 22 12.2 ENE 30 43 16 23 1021.7 1020.5 0.0
20/10:00am 25.8 18.3 3.7 24 11.2 ENE 32 41 17 22 1022.0 1020.8 0.0
20/09:30am 25.0 17.5 4.7 27 10.4 ENE 33 43 18 23 1022.2 1021.0 0.0
20/09:00am 23.2 16.1 5.6 32 9.0 ENE 32 43 17 23 1022.4 1021.2 0.0
20/08:30am 21.0 13.0 5.8 37 7.8 ENE 37 46 20 25 1022.5 1021.4 0.0
20/08:00am 20.1 13.3 6.8 42 6.9 E 32 43 17 23 1022.4 1021.2 0.0
20/07:30am 18.7 11.7 6.9 46 6.0 E 33 48 18 26 1022.4 1021.2 0.0
20/07:00am 17.4 10.5 7.2 51 5.2 E 33 46 18 25 1022.2 1021.0 0.0
20/06:30am 16.2 10.2 7.2 55 4.6 E 28 37 15 20 1021.9 1020.7 0.0
20/06:00am 15.6 10.7 6.9 56 4.4 E 22 30 12 16 1021.8 1020.6 0.0
20/05:30am 15.8 10.9 7.0 56 4.4 E 22 32 12 17 1021.7 1020.5 0.0
20/05:00am 16.3 10.3 7.0 54 4.7 E 28 35 15 19 1021.4 1020.2 0.0
20/04:30am 16.7 10.6 6.8 52 5.0 ESE 28 35 15 19 1021.1 1019.9 0.0
20/04:00am 17.1 11.1 7.2 52 5.0 ESE 28 37 15 20 1020.8 1019.7 0.0
20/03:30am 17.7 12.1 7.2 50 5.4 ESE 26 39 14 21 1020.6 1019.5 0.0
20/03:00am 18.3 13.0 6.8 47 5.9 ESE 24 35 13 19 1020.5 1019.3 0.0
20/02:30am 18.8 12.9 6.0 43 6.5 ESE 26 35 14 19 1020.4 1019.2 0.0
20/02:00am 19.6 13.3 5.6 40 7.0 ESE 28 37 15 20 1020.2 1019.0 0.0
20/01:30am 20.0 14.8 5.6 39 7.3 ESE 22 30 12 16 1020.4 1019.2 0.0
20/01:00am 20.4 15.2 5.6 38 7.5 E 22 30 12 16 1020.4 1019.2 0.0
20/12:30am 20.9 15.4 5.7 37 7.7 E 24 30 13 16 1020.4 1019.2 0.0
20/12:00am 21.3 15.7 5.6 36 8.0 E 24 30 13 16 1020.2 1019.0 0.0
 
Date/Time
WST
Temp
°C
App
Temp
°C
Dew
Point
Rel
Hum
%
Delta-T
°C
Wind Press
QNH
hPa
Press
MSL
hPa
Rain
since 9 am
mm
Dir
 
Spd
km/h
Gust
km/h
Spd
kts
Gust
kts
19/11:30pm 21.5 15.5 5.4 35 8.2 E 26 32 14 17 1020.2 1019.0 0.0
19/11:00pm 22.1 15.8 5.5 34 8.5 E 28 41 15 22 1020.2 1019.0 0.0
19/10:30pm 22.8 16.4 5.3 32 9.0 E 28 39 15 21 1020.2 1019.0 0.0
19/10:00pm 23.1 17.8 5.1 31 9.2 E 22 28 12 15 1020.4 1019.2 0.0
19/09:30pm 23.6 18.5 4.0 28 9.8 SE 20 28 11 15 1020.3 1019.1 0.0
19/09:00pm 22.0 18.2 1.6 26 9.7 SSE 11 17 6 9 1020.4 1019.2 0.0
19/08:30pm 23.7 19.2 2.0 24 10.5 S 15 17 8 9 1020.0 1018.8 0.0
19/08:00pm 24.2 20.4 1.8 23 10.8 S 11 13 6 7 1019.8 1018.6 0.0
19/07:30pm 25.5 21.6 0.9 20 11.8 S 11 15 6 8 1019.7 1018.5 0.0
19/07:00pm 26.2 22.2 0.8 19 12.2 SE 11 13 6 7 1019.3 1018.1 0.0
19/06:30pm 27.4 22.7 1.0 18 12.9 S 15 19 8 10 1018.9 1017.7 0.0
19/06:00pm 28.2 23.1 0.9 17 13.3 S 17 22 9 12 1018.3 1017.1 0.0
19/05:30pm 29.1 24.0 0.7 16 13.9 SSW 17 22 9 12 1017.9 1016.7 0.0
19/05:00pm 29.8 24.6 0.4 15 14.4 SW 17 22 9 12 1017.5 1016.3 0.0
19/04:30pm 30.5 24.7 0.0 14 14.9 S 20 28 11 15 1017.1 1015.9 0.0
19/04:00pm 30.3 24.5 -0.1 14 14.8 S 20 32 11 17 1017.0 1015.8 0.0
19/03:30pm 30.8 27.1 0.2 14 15.1 SE 9 17 5 9 1016.8 1015.5 0.0
19/03:00pm 30.5 26.6 1.0 15 14.7 S 11 22 6 12 1016.9 1015.7 0.0
19/02:30pm 30.6 27.4 1.0 15 14.8 S 7 11 4 6 1017.0 1015.8 0.0
19/02:00pm 30.9 26.4 2.2 16 14.6 S 15 28 8 15 1017.1 1015.9 0.0
19/01:30pm 30.5 25.1 -1.0 13 15.2 WSW 17 20 9 11 1017.4 1016.2 0.0
19/01:00pm 30.0 24.2 2.3 17 14.0 SSE 22 33 12 18 1017.6 1016.4 0.0
19/12:30pm 29.5 23.9 3.5 19 13.4 S 22 35 12 19 1017.9 1016.7 0.0
19/12:00pm 29.0 22.5 4.5 21 12.8 S 28 35 15 19 1018.2 1017.0 0.0
19/11:30am 28.4 22.5 4.0 21 12.6 S 24 33 13 18 1018.3 1017.1 0.0
19/11:00am 28.9 23.7 3.7 20 13.0 S 20 33 11 18 1018.5 1017.3 0.0
19/10:30am 27.6 22.9 3.3 21 12.4 SSW 17 28 9 15 1018.8 1017.6 0.0
19/10:00am 27.1 23.0 4.2 23 11.8 SW 15 20 8 11 1018.9 1017.7 0.0
19/09:30am 25.2 21.0 3.8 25 10.8 WSW 15 20 8 11 1019.0 1017.8 0.0
19/09:00am 24.6 20.9 4.4 27 10.3 WNW 13 17 7 9 1019.0 1017.8 0.0
19/08:30am 23.6 20.3 4.5 29 9.7 W 11 15 6 8 1019.1 1017.9 0.0
19/08:00am 22.4 19.5 4.9 32 8.8 N 9 13 5 7 1018.8 1017.6 0.0
19/07:30am 20.1 18.4 6.1 40 7.1 NNW 4 9 2 5 1018.4 1017.2 0.0
19/07:00am 17.1 16.2 6.0 48 5.5 CALM 0 0 0 0 1018.0 1016.8 0.0
19/06:30am 15.1 14.2 6.1 55 4.4 CALM 0 0 0 0 1017.8 1016.6 0.0
19/06:00am 14.5 13.6 6.1 57 4.1 CALM 0 6 0 3 1017.4 1016.2 0.0
19/05:30am 15.7 12.8 6.4 54 4.6 NE 11 15 6 8 1017.0 1015.8 0.0
19/05:00am 16.2 13.2 6.1 51 5.0 ENE 11 13 6 7 1016.7 1015.4 0.0
19/04:30am 16.8 13.5 6.3 50 5.3 ENE 13 17 7 9 1016.2 1015.0 0.0
19/04:00am 16.7 13.4 6.2 50 5.2 ENE 13 17 7 9 1016.1 1014.9 0.0
19/03:30am 16.2 12.8 5.8 50 5.1 ENE 13 15 7 8 1015.9 1014.7 0.0
19/03:00am 16.8 13.4 6.0 49 5.4 ENE 13 17 7 9 1015.8 1014.6 0.0
19/02:30am 17.3 13.9 5.9 47 5.7 ENE 13 17 7 9 1015.8 1014.6 0.0
19/02:00am 18.1 14.0 6.0 45 6.1 ENE 17 20 9 11 1015.8 1014.6 0.0
19/01:30am 18.0 14.6 5.9 45 6.1 ENE 13 19 7 10 1015.8 1014.6 0.0
19/01:00am 18.3 15.2 5.5 43 6.4 ENE 11 15 6 8 1016.0 1014.8 0.0
19/12:30am 19.2 15.4 5.6 41 6.8 ENE 15 20 8 11 1016.0 1014.8 0.0
19/12:00am 19.5 16.8 5.6 40 7.0 ENE 9 13 5 7 1016.3 1015.1 0.0
 
Date/Time
WST
Temp
°C
App
Temp
°C
Dew
Point
Rel
Hum
%
Delta-T
°C
Wind Press
QNH
hPa
Press
MSL
hPa
Rain
since 9 am
mm
Dir
 
Spd
km/h
Gust
km/h
Spd
kts
Gust
kts
18/11:30pm 19.5 16.6 4.8 38 7.3 E 9 13 5 7 1016.5 1015.2 0.0
18/11:00pm 20.1 16.4 4.2 35 7.8 ENE 13 17 7 9 1016.3 1015.1 0.0
18/10:30pm 20.3 15.9 2.6 31 8.5 ENE 15 17 8 9 1016.2 1015.0 0.0
18/10:00pm 21.6 16.4 2.3 28 9.2 ENE 19 22 10 12 1016.2 1015.0 0.0
18/09:30pm 23.4 18.9 2.3 25 10.3 NE 15 20 8 11 1016.0 1014.8 0.0
18/09:00pm 23.4 19.7 2.3 25 10.2 NE 11 17 6 9 1016.0 1014.8 0.0
18/08:30pm 22.4 19.0 2.0 26 9.8 NE 9 11 5 6 1015.9 1014.7 0.0
18/08:00pm 23.4 20.4 1.7 24 10.4 ENE 7 9 4 5 1016.0 1014.8 0.0
18/07:30pm 24.9 21.6 2.4 23 11.1 NE 9 15 5 8 1015.6 1014.4 0.0
18/07:00pm 25.8 22.0 1.8 21 11.7 NNE 11 13 6 7 1015.3 1014.1 0.0
18/06:30pm 26.6 22.4 1.8 20 12.2 NE 13 19 7 10 1014.8 1013.5 0.0
18/06:00pm 27.7 23.4 1.2 18 13.0 ENE 13 19 7 10 1014.4 1013.1 0.0
18/05:30pm 28.8 23.4 1.3 17 13.6 NE 19 24 10 13 1013.9 1012.7 0.0
18/05:00pm 29.9 24.9 1.4 16 14.2 NNE 17 24 9 13 1013.6 1012.4 0.0
18/04:30pm 30.7 25.1 1.1 15 14.8 NE 20 24 11 13 1013.5 1012.3 0.0
18/04:00pm 30.9 25.9 1.3 15 14.9 N 17 28 9 15 1013.5 1012.3 0.0
18/03:30pm 30.9 26.6 1.3 15 14.9 NE 13 24 7 13 1013.7 1012.5 0.0
18/03:00pm 31.4 27.1 0.7 14 15.3 NE 13 24 7 13 1013.9 1012.7 0.0
18/02:30pm 31.2 28.0 0.6 14 15.2 N 7 19 4 10 1014.4 1013.1 0.0
18/02:00pm 30.8 26.4 0.2 14 15.1 N 13 20 7 11 1014.7 1013.4 0.0
18/01:30pm 30.7 25.7 1.1 15 14.8 NNE 17 28 9 15 1015.2 1014.0 0.0
18/01:00pm 29.6 24.2 1.1 16 14.1 NNE 19 24 10 13 1015.4 1014.2 0.0
18/12:30pm 28.4 22.4 1.0 17 13.5 E 22 28 12 15 1016.0 1014.8 0.0
18/12:00pm 28.3 22.7 0.1 16 13.6 NE 19 28 10 15 1016.8 1015.5 0.0
18/11:30am 28.1 22.6 0.8 17 13.3 NE 19 30 10 16 1017.7 1016.5 0.0
18/11:00am 26.1 20.5 0.0 18 12.4 ENE 19 32 10 17 1018.1 1016.9 0.0
18/10:30am 25.2 20.0 0.0 19 11.9 NE 17 24 9 13 1018.5 1017.3 0.0
18/10:00am 24.4 18.6 -1.4 18 11.8 NE 19 22 10 12 1018.9 1017.7 0.0
18/09:30am 22.9 17.5 -1.2 20 10.9 ENE 17 24 9 13 1019.3 1018.1 0.0
18/09:00am 22.0 16.6 -1.3 21 10.4 ENE 17 26 9 14 1019.2 1018.0 0.0
18/08:30am 21.3 14.5 -1.9 21 10.2 ENE 24 32 13 17 1018.8 1017.6 0.0
18/08:00am 20.1 13.5 -2.9 21 9.8 E 22 32 12 17 1018.5 1017.3 0.0
18/07:30am 18.5 10.3 -3.6 22 9.2 E 30 41 16 22 1018.2 1017.0 0.0
18/07:00am 17.3 10.2 -4.0 23 8.7 E 24 33 13 18 1018.1 1016.9 0.0
18/06:30am 16.3 10.0 -3.7 25 8.1 E 20 30 11 16 1017.8 1016.6 0.0
18/06:00am 16.3 10.1 -3.2 26 8.0 E 20 30 11 16 1017.5 1016.3 0.0
18/05:30am 16.6 10.0 -3.5 25 8.2 E 22 30 12 16 1017.0 1015.8 0.0
18/05:00am 16.8 9.8 -3.3 25 8.3 E 24 33 13 18 1016.5 1015.2 0.0
18/04:30am 17.3 9.5 -3.4 24 8.5 E 28 37 15 20 1016.1 1014.9 0.0
18/04:00am 17.5 10.6 -2.7 25 8.5 E 24 32 13 17 1015.9 1014.7 0.0
18/03:30am 18.0 10.7 -2.8 24 8.7 E 26 33 14 18 1015.7 1014.5 0.0
18/03:00am 18.4 11.2 -2.0 25 8.7 E 26 33 14 18 1015.7 1014.5 0.0
18/02:30am 18.8 12.0 -1.6 25 8.9 E 24 32 13 17 1016.0 1014.8 0.0
18/02:00am 19.1 12.4 -0.8 26 8.8 E 24 32 13 17 1016.1 1014.9 0.0
18/01:30am 19.3 13.5 -0.1 27 8.7 E 20 28 11 15 1016.6 1015.3 0.0
18/01:00am 19.5 13.9 0.0 27 8.8 ESE 19 26 10 14 1016.8 1015.5 0.0
18/12:30am 19.9 13.4 0.4 27 8.9 E 24 33 13 18 1016.1 1014.9 0.0
18/12:00am 20.1 12.9 1.0 28 8.8 ENE 28 37 15 20 1015.9 1014.7 0.0
 
Date/Time
WST
Temp
°C
App
Temp
°C
Dew
Point
Rel
Hum
%
Delta-T
°C
Wind Press
QNH
hPa
Press
MSL
hPa
Rain
since 9 am
mm
Dir
 
Spd
km/h
Gust
km/h
Spd
kts
Gust
kts
17/11:30pm 20.5 13.0 1.4 28 8.9 ENE 30 41 16 22 1015.9 1014.7 0.0
17/11:00pm 20.9 14.2 1.7 28 9.0 ENE 26 33 14 18 1016.6 1015.3 0.0
17/10:30pm 21.4 15.2 2.2 28 9.2 ENE 24 32 13 17 1016.9 1015.7 0.0
17/10:00pm 21.6 15.8 2.3 28 9.2 ENE 22 30 12 16 1016.8 1015.5 0.0
17/09:30pm 22.1 15.6 2.8 28 9.4 E 26 35 14 19 1016.8 1015.5 0.0
17/09:00pm 22.7 16.3 3.3 28 9.5 E 26 35 14 19 1016.8 1015.5 0.0
17/08:30pm 23.1 16.8 3.6 28 9.7 ENE 26 35 14 19 1016.9 1015.7 0.0
17/08:00pm 23.8 18.3 4.2 28 9.9 E 22 26 12 14 1017.2 1016.0 0.0
17/07:30pm 24.1 20.1 5.0 29 9.8 NNE 15 20 8 11 1017.9 1016.7 0.0
17/07:00pm 25.1 20.9 3.7 25 10.8 NE 15 19 8 10 1017.0 1015.8 0.0
17/06:30pm 25.5 22.1 4.0 25 10.9 NNE 11 15 6 8 1016.8 1015.5 0.0
17/06:00pm 26.2 21.7 4.1 24 11.3 NE 17 22 9 12 1016.2 1015.0 0.0
17/05:30pm 26.9 21.8 4.0 23 11.7 ENE 20 26 11 14 1015.9 1014.7 0.0
17/05:00pm 27.4 22.2 3.8 22 12.1 NE 20 28 11 15 1015.8 1014.6 0.0
17/04:30pm 28.3 22.8 3.9 21 12.6 NE 22 30 12 16 1015.6 1014.4 0.0
17/04:00pm 28.7 23.8 4.2 21 12.7 NE 19 26 10 14 1015.4 1014.2 0.0
17/03:30pm 28.4 23.5 4.0 21 12.6 NE 19 28 10 15 1015.3 1014.1 0.0
17/03:00pm 29.8 24.8 3.7 19 13.5 NE 19 33 10 18 1015.4 1014.2 0.0
17/02:30pm 29.2 23.6 3.2 19 13.3 NNE 22 32 12 17 1015.6 1014.4 0.0
17/02:00pm 29.2 24.3 3.9 20 13.1 ENE 19 30 10 16 1015.8 1014.6 0.0
17/01:30pm 28.4 22.1 4.0 21 12.6 ENE 26 35 14 19 1016.2 1015.0 0.0
17/01:00pm 26.9 22.0 5.2 25 11.4 E 20 30 11 16 1016.9 1015.7 0.0
17/12:30pm 25.2 19.9 4.9 27 10.5 ENE 22 32 12 17 1017.6 1016.4 0.0
17/12:00pm 26.4 21.2 5.4 26 11.0 ENE 22 32 12 17 1018.0 1016.8 0.0

Other Formats:

Comma delimited format used in spreadsheet applications
http://www.bom.gov.au/fwo/IDW60801/IDW60801.94449.axf

JavaScript Object Notation format (JSON) in row-major order
http://www.bom.gov.au/fwo/IDW60801/IDW60801.94449.json